Augsburg, Illinois
Current Conditions -  °F | °C
As of 8:35 PM on Tuesday 25 Nov 2014 (Local Time) from KENL Reporting Station
Clear Clear  
Wind Chill: 28°   Ceiling: Unl
Heat Index: 28°   Visibility: 10mi
Dew Point: 24°   Wind: 3mph
Humidity: 84%   Direction: 110°ESE
Pressure: 30.2"   Gusts: NA
Location:  38.8463°N, 89.0894°W
Report Text: KENL 260235Z AUTO 11003KT 10SM CLR M02/M04 A3020 RMK AO2 T10211045
Loading
Personal Weather Stations






























Interactive Weather Map New forecast layout! Learn more

10-Day Weather Forecast

Advertisements
Track Severe Weather on mobile